Date,TemperatureHighF,TemperatureAvgF,TemperatureLowF,DewpointHighF,DewpointAvgF,DewpointLowF,HumidityHigh,HumidityAvg,HumidityLow,PressureMaxIn,PressureMinIn,WindSpeedMaxMPH,WindSpeedAvgMPH,GustSpeedMaxMPH,PrecipitationSumIn
2013-1-1,24,23,22,19,17,15,88,77,70,30.19,30.07,20,8,23,0.00
2013-1-2,27,25,23,22,20,17,87,81,75,30.15,30.05,10,5,15,0.00
2013-1-3,32,29,25,27,24,22,89,83,75,30.11,30.00,25,10,29,0.00
2013-1-4,38,30,26,32,26,22,89,83,71,30.14,29.92,42,16,42,0.00
2013-1-5,38,33,28,34,27,23,85,79,72,30.22,29.88,21,4,24,0.00
2013-1-6,37,32,28,32,27,20,90,80,70,30.28,29.83,21,7,22,0.00
2013-1-7,40,34,26,32,27,19,81,74,60,30.29,29.94,29,11,35,0.00
2013-1-8,42,38,33,35,32,28,87,79,69,30.16,29.96,13,4,21,0.00
2013-1-9,42,39,38,35,32,29,82,76,68,30.44,29.83,26,15,36,0.00
2013-1-10,41,37,28,30,28,26,89,70,58,30.55,30.07,11,3,16,0.00
2013-1-11,48,41,36,46,39,31,97,94,75,30.05,29.66,11,4,19,0.00
2013-1-12,52,45,34,47,39,28,92,80,69,29.97,29.60,30,13,40,0.00
2013-1-13,34,31,26,30,27,21,92,85,78,30.04,29.86,20,6,22,0.00
2013-1-14,27,24,22,23,18,14,87,77,67,30.41,30.04,20,11,26,0.00
2013-1-15,30,25,20,21,17,12,80,72,65,30.43,30.09,19,7,30,0.00
2013-1-16,33,30,26,30,24,19,94,80,71,30.09,29.69,27,10,40,0.00
2013-1-17,27,19,16,20,12,7,86,74,65,30.39,30.03,18,9,23,0.00
2013-1-18,41,25,14,35,19,7,88,78,66,30.42,29.77,14,7,21,0.00
2013-1-19,42,36,29,37,31,-100,95,87,73,29.84,29.46,25,8,33,0.00
2013-1-20,27,18,15,24,12,7,91,79,68,30.19,29.58,33,14,37,0.00
2013-1-21,15,9,3,13,5,-100,90,85,77,30.17,30.02,19,1,24,0.00
2013-1-22,11,7,4,6,2,-1,88,81,71,30.31,30.16,18,10,21,0.00
2013-1-23,19,14,11,14,10,4,89,82,72,30.30,30.10,18,11,26,0.00
2013-1-24,15,12,10,13,6,4,89,77,68,30.69,30.28,8,2,16,0.00
2013-1-25,24,17,12,20,13,4,90,84,70,30.50,29.99,10,4,14,0.00
2013-1-26,29,26,23,23,20,15,88,78,70,30.43,30.10,11,3,13,0.00
2013-1-27,32,28,26,28,23,19,94,81,66,30.43,30.05,9,3,14,0.00
2013-1-28,34,32,28,33,31,27,97,95,94,30.05,29.85,10,2,13,0.00
2013-1-29,54,40,32,52,39,30,97,95,92,30.01,29.50,14,5,18,0.00
2013-1-30,36,31,24,35,30,22,97,95,90,29.51,29.18,9,4,14,0.00
2013-1-31,23,20,19,22,17,13,94,86,76,29.93,29.32,21,13,23,0.00
2013-2-1,19,16,12,14,11,8,90,82,76,30.19,29.93,18,12,26,0.00
2013-2-2,19,14,12,13,9,6,87,79,64,30.15,30.06,19,3,25,0.00
2013-2-3,20,17,14,15,10,6,91,77,65,30.05,29.89,16,8,19,0.00
2013-2-4,19,16,8,10,8,5,84,72,64,30.04,29.98,11,4,14,0.00
2013-2-5,26,18,2,23,13,-1,92,82,70,30.06,29.75,14,6,17,0.00
2013-2-6,28,24,21,24,17,11,93,73,60,30.29,30.07,12,4,14,0.00
2013-2-7,30,28,24,28,26,22,95,94,92,30.23,30.08,7,2,8,0.00
2013-2-8,25,22,12,22,19,9,94,88,76,30.43,30.11,7,2,11,0.00
2013-2-9,32,18,1,21,12,-2,92,79,62,30.45,30.23,5,2,9,0.00
2013-2-10,38,30,22,36,25,18,95,83,73,30.24,29.50,16,6,21,0.00
2013-2-11,44,36,31,42,33,23,95,89,73,29.83,29.39,22,11,26,0.00
2013-2-12,30,28,27,25,23,22,88,81,74,30.01,29.84,19,10,23,0.00
2013-2-13,36,33,27,31,29,23,89,84,78,29.88,29.70,12,6,15,0.00
2013-2-14,35,32,26,33,30,21,96,93,81,29.93,29.62,14,4,18,0.00
2013-2-15,26,23,19,21,17,12,89,78,63,30.17,29.93,13,7,16,0.00
2013-2-16,22,18,16,16,12,9,87,74,61,30.20,30.10,8,2,14,0.00
2013-2-17,22,18,13,14,11,6,85,77,66,30.24,30.13,10,3,12,0.00
2013-2-18,42,31,18,37,22,12,95,71,57,30.13,29.41,11,6,17,0.00
2013-2-19,40,27,18,39,25,13,96,91,80,29.95,29.24,28,16,28,0.00
2013-2-20,24,20,18,20,16,13,91,83,77,30.37,29.95,18,10,23,0.00
2013-2-21,23,21,18,19,16,14,88,83,76,30.48,30.33,7,3,21,0.00
2013-2-22,29,26,19,27,24,14,93,89,79,30.33,29.85,13,4,18,0.00
2013-2-23,31,29,26,29,27,24,96,92,82,29.88,29.79,10,4,14,0.00
2013-2-24,35,32,29,30,28,26,94,87,79,30.17,29.85,8,3,10,0.00
2013-2-25,36,33,26,31,28,24,92,82,72,30.23,30.15,5,1,7,0.00
2013-2-26,38,33,29,28,26,23,82,76,67,30.20,29.79,11,4,21,0.00
2013-2-27,34,33,31,32,31,28,95,92,82,29.78,29.67,8,3,13,0.00
2013-2-28,34,31,26,32,26,19,95,83,70,30.14,29.75,13,6,19,0.00
2013-3-1,26,23,20,20,17,15,85,78,67,30.28,30.14,8,4,14,0.00
2013-3-2,26,22,18,21,17,13,86,80,73,30.25,30.18,9,2,13,0.00
2013-3-3,26,24,21,19,17,15,85,76,67,30.17,30.12,8,2,12,0.00
2013-3-4,28,23,18,22,18,14,87,79,69,30.23,30.16,4,1,7,0.00
2013-3-5,32,23,9,24,18,6,91,81,65,30.22,30.04,8,2,11,0.00
2013-3-6,36,32,27,31,28,23,94,86,79,30.33,30.13,10,2,16,0.00
2013-3-7,30,28,27,26,22,20,89,78,68,30.50,30.33,5,2,12,0.00
2013-3-8,34,30,23,29,24,20,89,80,68,30.56,30.41,8,2,10,0.00
2013-3-9,43,35,26,35,26,22,93,72,48,30.40,29.95,8,3,14,0.00
2013-3-10,43,38,35,40,37,34,97,94,87,29.95,29.80,9,3,15,0.00
2013-3-11,45,39,32,44,38,31,97,96,93,29.79,29.48,18,4,19,0.00
2013-3-12,32,29,25,31,25,20,95,87,73,29.91,29.59,16,9,20,0.00
2013-3-13,30,27,23,22,20,15,91,74,54,30.27,29.91,13,9,18,0.00
2013-3-14,35,31,28,29,22,20,78,71,64,30.29,30.04,16,7,20,0.00
2013-3-15,35,31,24,32,25,15,91,78,64,30.03,29.91,22,8,29,0.00
2013-3-16,25,23,20,21,17,13,92,79,66,30.09,29.94,9,2,11,0.00
2013-3-17,29,22,18,23,13,8,89,66,48,30.39,30.09,17,3,20,0.00
2013-3-18,41,28,18,31,20,11,94,76,41,30.23,29.53,13,5,18,0.00
2013-3-19,32,27,23,30,23,18,94,86,63,29.89,29.50,24,16,28,0.00
2013-3-20,29,24,22,22,18,15,89,77,62,29.96,29.89,17,11,23,0.00
2013-3-21,29,28,25,26,23,20,90,83,76,30.02,29.90,16,8,19,0.00
2013-3-22,32,30,26,28,25,21,89,83,76,30.11,30.00,9,4,11,0.00
2013-3-23,35,31,28,29,27,23,88,83,74,30.18,30.10,6,2,8,0.00
2013-3-24,35,32,29,28,25,22,86,77,62,30.14,29.89,8,2,10,0.00
2013-3-25,39,34,30,31,28,25,87,79,69,30.07,29.87,8,3,15,0.00
2013-3-26,39,36,34,33,32,29,92,85,74,30.21,30.06,8,4,12,0.00
2013-3-27,40,36,34,34,31,26,88,81,69,30.28,30.19,9,5,13,0.00
2013-3-28,41,37,34,33,29,24,82,74,57,30.33,30.28,7,3,10,0.00
2013-3-29,41,34,25,33,26,19,92,75,53,30.35,30.27,4,1,6,0.00
2013-3-30,48,40,25,41,25,18,91,58,33,30.27,29.82,13,3,18,0.00
2013-3-31,44,38,30,41,35,22,97,90,69,29.84,29.62,24,10,25,0.00
2013-4-1,31,28,24,24,20,15,82,72,59,30.15,29.84,18,10,22,0.00
2013-4-2,34,30,28,23,19,15,75,62,54,30.32,30.10,15,8,17,0.00
2013-4-3,34,31,28,23,19,15,71,62,53,30.51,30.31,13,4,14,0.00
2013-4-4,43,38,32,36,26,12,92,64,43,30.31,29.98,23,9,30,0.00
2013-4-5,37,33,29,28,22,18,75,65,57,30.30,30.07,8,3,15,0.00
2013-4-6,47,36,29,36,27,19,86,71,60,30.26,29.57,17,6,21,0.00
2013-4-7,49,38,33,45,35,29,96,88,69,30.07,29.47,20,7,22,0.00
2013-4-8,41,36,32,38,33,29,96,89,79,30.05,29.80,10,3,15,0.00
2013-4-9,40,37,33,39,36,31,97,96,91,30.16,30.04,7,1,16,0.00
2013-4-10,38,35,33,34,32,31,97,91,81,30.18,30.08,6,1,10,0.00
2013-4-11,36,34,31,31,28,25,95,78,66,30.13,29.79,17,4,19,0.00
2013-4-12,35,33,30,34,31,29,97,95,93,29.79,29.64,9,1,11,0.00
2013-4-13,36,34,32,33,31,30,96,90,79,29.97,29.73,16,6,22,0.00
2013-4-14,43,36,28,32,30,26,96,78,56,30.11,29.87,15,3,23,0.00
2013-4-15,55,46,39,51,42,32,96,85,75,29.92,29.74,18,7,27,0.00
2013-4-16,44,40,37,37,34,32,87,79,71,30.37,29.92,12,7,16,0.00
2013-4-17,49,39,30,37,33,28,94,79,57,30.44,30.07,7,2,13,0.00
2013-4-18,52,42,38,51,41,36,97,95,86,30.07,29.35,12,3,18,0.00
2013-4-19,56,39,30,55,32,22,97,79,65,29.74,29.24,31,16,40,0.00
2013-4-20,34,29,26,25,22,19,93,73,57,30.50,29.74,17,8,21,0.00
2013-4-21,46,34,25,32,24,16,88,68,30,30.64,30.38,7,2,10,0.00
2013-4-22,56,45,39,35,32,29,82,61,41,30.38,30.13,10,2,14,0.00
2013-4-23,56,44,34,46,36,32,96,76,56,30.13,29.89,14,6,21,0.00
2013-4-24,43,38,35,33,31,26,88,76,51,30.02,29.96,12,5,17,0.00
2013-4-25,44,41,37,36,32,27,90,74,58,30.30,29.93,17,8,26,0.00
2013-4-26,64,51,38,44,34,30,78,55,32,30.36,30.16,21,6,25,0.00
2013-4-27,59,55,51,48,43,35,80,66,43,30.23,30.09,14,7,22,0.00
2013-4-28,68,54,44,43,39,36,81,59,33,30.10,29.84,6,1,11,0.00
2013-4-29,59,53,44,56,49,39,97,87,60,29.89,29.84,6,2,11,0.00
2013-4-30,79,66,57,61,57,53,93,73,49,29.87,29.75,13,6,19,0.00
2013-5-1,74,56,44,61,49,38,90,79,62,30.31,29.86,10,3,21,0.00
2013-5-2,51,42,39,42,38,36,90,85,71,30.34,30.25,11,3,19,0.00
2013-5-3,50,42,38,43,39,35,93,88,78,30.28,30.09,6,2,9,0.00
2013-5-4,71,56,41,51,44,39,95,68,44,30.15,30.05,7,1,10,0.00
2013-5-5,70,57,48,44,39,35,79,51,32,30.13,30.04,6,2,10,0.00
2013-5-6,65,50,42,46,41,39,93,76,39,30.14,30.03,4,1,8,0.00
2013-5-7,74,56,46,45,41,36,88,60,29,30.12,30.01,5,1,9,0.00
2013-5-8,66,57,48,52,43,33,82,61,35,30.07,29.98,3,1,6,0.00
2013-5-9,59,51,43,48,43,36,93,74,58,30.06,29.96,6,1,11,0.00
2013-5-10,45,42,38,44,40,37,96,93,88,30.05,29.98,9,3,13,0.00
2013-5-11,46,40,34,43,37,33,96,90,74,29.98,29.76,17,4,22,0.00
2013-5-12,40,37,35,35,32,29,91,80,70,30.13,29.86,21,12,23,0.00
2013-5-13,47,42,38,36,31,21,82,67,37,30.22,30.05,9,4,11,0.00
2013-5-14,64,51,42,48,38,20,79,63,35,30.06,29.57,14,4,15,0.00
2013-5-15,70,56,47,53,46,43,86,68,46,29.79,29.45,21,6,23,0.00
2013-5-16,60,54,46,47,42,39,87,66,47,30.10,29.78,5,1,8,0.00
2013-5-17,64,54,44,48,44,40,89,70,49,30.22,30.09,7,1,8,0.00
2013-5-18,75,62,54,50,46,44,75,58,38,30.19,30.00,8,3,10,0.00
2013-5-19,81,64,51,62,52,46,93,66,52,30.00,29.83,8,2,11,0.00
2013-5-20,84,69,57,69,62,54,93,79,58,29.86,29.71,7,2,12,0.00
2013-5-21,69,60,48,64,58,48,97,91,74,29.75,29.64,13,2,17,0.00
2013-5-22,55,49,46,55,49,46,98,98,97,29.79,29.69,4,0,5,0.00
2013-5-23,50,44,41,49,41,36,98,89,74,30.31,29.80,9,3,18,0.00
2013-5-24,49,43,39,40,37,34,91,79,63,30.47,30.31,5,2,11,0.00
2013-5-25,59,47,38,44,40,35,96,77,41,30.49,30.35,3,1,8,0.00
2013-5-26,65,49,40,45,40,34,94,73,36,30.41,30.25,5,0,7,0.00
2013-5-27,72,60,46,45,39,32,73,50,23,30.27,29.99,6,1,8,0.00
2013-5-28,61,56,49,59,51,41,97,82,49,29.98,29.76,6,1,8,0.00
2013-5-29,63,56,48,62,54,47,98,95,84,29.95,29.76,6,1,10,0.00
2013-5-30,86,74,58,70,64,55,96,72,51,29.92,29.81,9,3,15,0.00
2013-5-31,75,70,62,69,63,58,94,81,59,29.84,29.73,15,3,16,0.00
2013-6-1,76,64,55,65,60,53,97,86,66,29.74,29.62,6,1,10,0.00
2013-6-2,59,46,43,58,43,37,96,88,74,30.07,29.62,10,4,11,0.00
2013-6-3,56,48,41,49,43,37,91,81,60,30.17,30.05,11,2,13,0.00
2013-6-4,63,52,42,46,43,36,96,74,37,30.25,30.18,2,0,6,0.00
2013-6-5,58,54,48,54,49,41,92,84,70,30.22,30.08,3,1,7,0.00
2013-6-6,68,60,53,51,46,42,76,60,50,30.09,29.96,6,1,7,0.00
2013-6-7,60,55,50,49,46,43,89,73,57,30.01,29.93,2,0,3,0.00
2013-6-8,62,55,49,52,48,42,91,79,63,30.08,29.94,3,0,5,0.00
2013-6-9,74,65,52,59,54,45,88,69,57,30.12,29.95,6,1,6,0.00
2013-6-10,68,62,54,63,56,52,96,80,64,29.95,29.80,6,1,9,0.00
2013-6-11,64,57,53,61,55,52,98,93,85,29.92,29.83,5,0,6,0.00
2013-6-12,69,60,54,61,56,53,97,89,69,29.94,29.76,2,0,3,0.00
2013-6-13,63,56,53,55,52,50,92,84,67,30.06,29.74,6,1,11,0.00
2013-6-14,60,54,49,50,47,24,96,79,31,30.17,30.05,3,0,4,0.00
2013-6-15,70,61,50,61,52,36,90,74,47,30.06,29.84,3,0,5,0.00
2013-6-16,69,61,55,63,57,52,98,88,66,29.87,29.76,12,4,16,0.00
2013-6-17,64,58,54,56,54,52,94,87,77,30.03,29.84,4,0,7,0.00
2013-6-18,68,58,50,54,50,43,96,78,43,30.15,30.03,3,0,6,0.00
2013-6-19,65,58,50,54,47,41,90,69,48,30.20,30.12,3,0,5,0.00
2013-6-20,73,65,56,60,52,43,86,64,42,30.18,30.11,5,1,6,0.00
2013-6-21,83,71,65,67,61,56,84,71,55,30.15,29.92,11,3,18,0.00
2013-6-22,74,62,58,65,59,57,97,91,73,30.09,29.96,6,1,9,0.00
2013-6-23,86,71,60,72,65,59,97,84,60,30.01,29.84,7,2,12,0.00
2013-6-24,77,72,66,69,66,61,91,82,75,29.97,29.84,8,3,10,0.00
2013-6-25,73,68,64,67,64,61,95,85,77,29.87,29.81,10,3,12,0.00
2013-6-26,74,67,61,67,64,59,97,90,78,29.83,29.75,4,0,7,0.00
2013-6-27,73,66,62,66,62,58,93,87,78,29.80,29.66,5,1,11,0.00
2013-6-28,69,64,60,64,61,58,94,89,82,29.69,29.60,3,1,9,0.00
2013-6-29,71,64,61,63,60,56,94,87,69,29.83,29.62,2,0,7,0.00
2013-6-30,75,65,58,59,55,49,92,73,40,30.05,29.83,5,0,8,0.00
2013-7-1,77,66,57,61,54,43,89,67,46,30.16,30.05,5,0,7,0.00
2013-7-2,71,64,54,56,51,42,82,62,48,30.17,30.09,2,0,6,0.00
2013-7-3,77,68,60,61,57,51,87,70,53,30.12,30.02,2,0,4,0.00
2013-7-4,74,67,61,65,61,57,96,81,63,30.09,30.02,9,3,11,0.00
2013-7-5,76,71,67,65,62,57,83,73,57,30.07,29.99,9,2,12,0.00
2013-7-6,76,73,70,65,61,53,76,67,51,30.03,29.95,9,4,9,0.00
2013-7-7,78,73,69,68,66,62,85,77,67,29.98,29.91,9,1,10,0.00
2013-7-8,74,68,65,73,67,64,98,94,81,30.00,29.89,9,2,11,0.00
2013-7-9,74,68,65,70,67,65,99,96,85,30.00,29.72,5,0,9,0.00
2013-7-10,72,68,62,70,64,60,95,88,76,29.97,29.72,13,5,17,0.00
2013-7-11,71,65,61,61,59,55,91,80,63,30.12,29.97,3,0,6,0.00
2013-7-12,73,65,58,66,60,54,93,83,69,30.20,30.10,0,0,0,0.00
2013-7-13,76,70,64,65,62,58,91,76,62,30.19,30.11,6,1,8,0.00
2013-7-14,80,73,66,68,65,61,86,75,66,30.26,30.19,4,0,5,0.00
2013-7-15,87,76,69,72,68,63,90,77,54,30.30,30.22,2,0,3,0.00
2013-7-16,83,78,70,74,70,65,88,78,64,30.27,30.18,8,2,8,0.00
2013-7-17,83,79,76,75,74,73,89,82,75,30.22,30.09,8,3,10,0.00
2013-7-18,88,81,75,75,73,72,89,77,63,30.10,29.79,13,5,22,0.00
2013-7-19,83,79,70,73,70,63,85,75,68,29.78,29.63,20,9,26,0.00
2013-7-20,72,68,59,65,56,49,81,67,51,30.02,29.75,7,1,9,0.00
2013-7-21,72,63,54,59,55,50,91,75,58,30.05,29.93,3,0,4,0.00
2013-7-22,81,72,63,70,64,57,87,77,61,29.93,29.64,11,3,13,0.00
2013-7-23,77,65,59,68,56,48,86,73,61,29.97,29.63,13,4,17,0.00
2013-7-24,70,62,54,55,51,47,85,68,54,30.09,29.97,3,1,10,0.00
2013-7-25,76,66,56,62,54,44,89,65,42,30.08,29.96,9,3,11,0.00
2013-7-26,77,67,61,67,60,49,96,78,55,29.97,29.82,18,3,22,0.00
2013-7-27,62,58,55,61,55,51,96,89,73,29.87,29.80,8,2,11,0.00
2013-7-28,60,58,56,56,54,51,95,85,75,29.90,29.76,12,4,16,0.00
2013-7-29,66,60,56,59,56,54,96,87,75,30.18,29.90,8,3,11,0.00
2013-7-30,71,64,56,63,58,54,94,80,70,30.22,30.11,4,0,6,0.00
2013-7-31,71,67,64,67,62,55,89,83,71,30.11,29.89,7,3,9,0.00
2013-8-1,71,66,64,63,61,58,94,84,68,29.91,29.86,8,2,10,0.00
2013-8-2,71,66,61,64,61,57,91,83,73,29.93,29.81,11,2,13,0.00
2013-8-3,70,65,61,59,56,54,83,74,66,30.11,29.93,9,1,11,0.00
2013-8-4,69,63,57,58,54,48,86,71,50,30.22,30.11,3,1,9,0.00
2013-8-5,68,62,53,61,54,49,93,78,61,30.12,29.89,3,0,4,0.00
2013-8-6,75,69,62,67,63,57,88,82,70,29.89,29.78,10,2,11,0.00
2013-8-7,72,67,62,68,63,54,95,87,74,29.99,29.65,21,4,30,0.00
2013-8-8,72,63,55,61,56,52,94,79,61,30.07,29.99,5,1,6,0.00
2013-8-9,72,66,58,65,57,50,91,75,62,30.05,29.92,11,3,13,0.00
2013-8-10,70,63,55,60,56,48,89,76,66,30.16,30.05,5,2,7,0.00
2013-8-11,72,67,60,64,61,55,91,82,67,30.11,30.03,7,3,10,0.00
2013-8-12,71,65,59,65,61,53,94,87,73,30.04,29.88,9,3,13,0.00
2013-8-13,62,59,56,53,50,47,81,71,61,30.14,29.97,7,2,12,0.00
2013-8-14,65,61,58,54,51,47,80,72,59,30.21,30.12,8,2,9,0.00
2013-8-15,71,64,58,61,56,48,88,74,65,30.13,30.07,5,3,8,0.00
2013-8-16,73,65,57,65,60,55,95,84,59,30.19,30.11,4,1,4,0.00
2013-8-17,74,67,57,65,59,53,94,77,53,30.26,30.18,6,2,7,0.00
2013-8-18,72,67,58,65,59,54,91,77,62,30.22,30.08,7,2,8,0.00
2013-8-19,76,71,66,65,61,55,84,71,61,30.09,29.98,10,4,14,0.00
2013-8-20,82,75,70,66,64,62,81,71,59,30.05,29.98,13,5,14,0.00
2013-8-21,85,78,73,70,67,63,76,69,57,30.00,29.86,21,6,29,0.00
2013-8-22,74,70,63,67,63,57,95,79,61,30.13,30.01,4,1,6,0.00
2013-8-23,75,66,59,65,60,57,97,83,62,30.22,30.13,7,0,7,0.00
2013-8-24,74,68,62,65,60,56,87,77,64,30.28,30.18,5,1,6,0.00
2013-8-25,84,77,68,69,64,57,71,64,59,30.20,29.98,13,7,20,0.00
2013-8-26,80,75,70,71,69,68,94,82,68,30.05,29.93,17,5,23,0.00
2013-8-27,72,70,69,72,69,67,98,95,89,29.98,29.83,7,0,12,0.00
2013-8-28,76,70,67,71,68,66,98,95,84,30.04,29.84,2,0,3,0.00
2013-8-29,78,72,66,73,68,65,98,89,76,30.08,29.95,4,0,5,0.00
2013-8-30,77,73,70,71,68,64,93,84,70,29.95,29.75,16,5,22,0.00
2013-8-31,74,69,64,67,65,63,97,88,77,29.89,29.80,2,0,5,0.00
2013-9-1,79,69,63,69,65,60,96,88,68,29.85,29.67,10,2,11,0.00
2013-9-2,63,60,57,60,55,53,92,84,74,29.97,29.80,11,6,13,0.00
2013-9-3,68,64,61,60,56,53,87,78,65,30.05,29.95,11,5,14,0.00
2013-9-4,68,65,59,63,57,45,90,77,58,30.17,29.94,9,3,11,0.00
2013-9-5,63,58,53,49,47,43,85,69,55,30.34,30.17,3,0,8,0.00
2013-9-6,76,64,51,63,54,45,90,72,52,30.25,29.96,8,3,10,0.00
2013-9-7,74,71,66,68,66,59,94,85,65,30.01,29.86,11,4,13,0.00
2013-9-8,70,65,59,63,57,53,90,76,55,30.15,30.01,3,0,8,0.00
2013-9-9,80,67,58,73,61,50,90,82,68,30.03,29.70,7,1,15,0.00
2013-9-10,83,77,70,74,69,67,93,76,69,29.96,29.70,14,6,21,0.00
2013-9-11,73,69,65,68,66,64,96,89,79,29.97,29.89,11,4,13,0.00
2013-9-12,69,63,54,65,56,47,92,81,72,30.09,29.91,9,3,14,0.00
2013-9-13,58,53,48,50,44,41,90,74,60,30.22,30.09,9,1,16,0.00
2013-9-14,64,55,45,54,49,44,95,80,64,30.18,30.02,11,3,15,0.00
2013-9-15,62,58,52,57,54,46,94,86,78,30.23,30.00,10,3,15,0.00
2013-9-16,56,50,46,47,43,41,90,76,61,30.45,30.24,4,0,12,0.00
2013-9-17,62,53,44,52,46,42,93,79,62,30.43,30.20,3,1,6,0.00
2013-9-18,74,64,51,62,54,47,90,72,62,30.20,29.93,4,1,7,0.00
2013-9-19,78,71,64,71,66,60,96,86,71,29.95,29.73,10,2,15,0.00
2013-9-20,72,68,61,67,65,56,95,89,82,29.74,29.66,13,5,16,0.00
2013-9-21,61,56,51,56,50,43,92,80,69,29.95,29.72,9,5,12,0.00
2013-9-22,54,51,49,46,42,40,81,72,63,30.13,29.94,5,1,11,0.00
2013-9-23,61,52,44,50,45,41,91,78,59,30.22,30.13,3,0,5,0.00
2013-9-24,63,54,47,54,49,44,93,83,70,30.17,30.03,3,1,5,0.00
2013-9-25,68,57,49,56,51,45,96,81,56,30.07,30.01,2,0,3,0.00
2013-9-26,67,58,50,58,54,49,96,85,68,30.14,30.04,2,0,3,0.00
2013-9-27,72,62,53,58,54,49,92,77,56,30.22,30.13,3,1,5,0.00
2013-9-28,77,66,56,61,56,53,91,71,47,30.14,29.83,10,2,10,0.00
2013-9-29,74,59,52,62,53,48,96,79,53,30.04,29.83,15,4,21,0.00
2013-9-30,66,57,47,57,51,46,96,80,55,30.02,29.85,6,1,8,0.00
2013-10-1,75,68,60,63,59,48,84,73,58,29.88,29.73,19,6,31,0.00
2013-10-2,67,62,56,59,54,50,89,75,65,30.09,29.86,13,4,14,0.00
2013-10-3,68,60,55,61,54,43,97,81,56,30.06,29.92,6,1,10,0.00
2013-10-4,62,60,57,62,59,56,98,97,95,30.08,29.91,5,1,6,0.00
2013-10-5,64,60,56,61,58,56,98,94,89,30.08,29.84,7,3,11,0.00
2013-10-6,65,59,55,64,57,50,98,92,78,29.81,29.64,14,4,20,0.00
2013-10-7,59,55,50,54,49,46,96,81,69,30.08,29.59,17,6,20,0.00
2013-10-8,69,57,47,54,48,44,92,72,45,30.21,30.09,5,1,7,0.00
2013-10-9,68,62,53,58,53,49,90,72,63,30.25,30.15,7,3,11,0.00
2013-10-10,65,58,52,59,52,45,94,80,59,30.23,30.12,3,0,6,0.00
2013-10-11,69,59,51,53,50,47,96,73,48,30.16,30.05,3,1,5,0.00
2013-10-12,75,63,56,61,53,45,93,71,54,30.05,29.92,13,4,27,0.00
2013-10-13,61,56,52,52,48,44,81,75,68,30.41,30.06,15,5,21,0.00
2013-10-14,57,50,44,46,43,38,94,78,52,30.48,30.31,3,0,4,0.00
2013-10-15,59,52,46,58,49,42,97,88,77,30.30,29.73,5,2,9,0.00
2013-10-16,59,54,52,57,50,43,95,86,72,29.89,29.70,18,8,19,0.00
2013-10-17,52,50,46,44,42,39,82,73,66,29.90,29.77,7,2,9,0.00
2013-10-18,55,50,44,48,46,41,96,83,69,29.84,29.77,13,3,16,0.00
2013-10-19,50,46,39,45,41,37,96,82,61,29.83,29.72,12,2,27,0.00
2013-10-20,50,45,39,44,40,38,96,84,63,29.86,29.68,11,3,14,0.00
2013-10-21,52,46,38,49,40,29,97,80,62,29.81,29.66,27,14,30,0.00
2013-10-22,46,43,37,40,37,32,92,80,69,29.91,29.72,28,11,34,0.00
2013-10-23,45,41,35,37,33,29,94,73,58,29.93,29.87,18,6,27,0.00
2013-10-24,46,43,37,39,35,31,95,74,60,30.18,29.91,11,7,13,0.00
2013-10-25,49,44,40,41,34,31,90,70,61,30.27,29.80,17,7,29,0.00
2013-10-26,53,47,44,44,39,34,87,73,66,29.99,29.63,25,13,33,0.00
2013-10-27,53,46,43,43,36,31,74,68,58,30.00,29.88,18,7,24,0.00
2013-10-28,49,39,34,40,31,26,81,72,64,30.49,30.02,8,2,22,0.00
2013-10-29,42,37,31,34,30,26,88,77,58,30.51,30.25,5,1,5,0.00
2013-10-30,58,47,39,50,42,34,93,83,65,30.25,29.84,3,0,6,0.00
2013-10-31,61,56,53,60,55,52,98,96,94,29.75,29.06,8,1,10,0.00
2013-11-1,54,49,44,53,46,40,98,92,85,29.70,29.03,18,7,23,0.00
2013-11-2,44,41,37,40,37,34,95,86,76,30.18,29.70,5,1,10,0.00
2013-11-3,45,40,35,35,33,30,90,77,64,30.39,30.18,5,1,9,0.00
2013-11-4,51,44,37,37,34,29,84,67,49,30.41,30.15,9,3,12,0.00
2013-11-5,52,51,50,50,47,37,95,85,61,30.29,30.00,11,2,12,0.00
2013-11-6,54,47,40,53,45,33,96,90,75,30.03,29.68,15,6,18,0.00
2013-11-7,41,40,37,35,33,29,87,76,67,30.12,30.03,14,10,22,0.00
2013-11-8,41,39,36,34,30,27,81,69,60,30.25,30.07,14,6,18,0.00
2013-11-9,49,44,38,45,39,32,94,83,72,30.07,29.67,26,12,31,0.00
2013-11-10,46,43,41,39,35,32,83,75,68,30.24,29.85,25,12,30,0.00
2013-11-11,47,35,30,39,29,20,93,78,62,30.44,30.00,23,11,32,0.00
2013-11-12,35,31,29,29,23,20,90,71,62,30.62,30.45,13,8,20,0.00
2013-11-13,44,38,33,33,28,23,84,69,59,30.49,29.96,23,13,39,0.00
2013-11-14,45,44,42,40,35,31,84,72,63,29.96,29.85,26,12,33,0.00
2013-11-15,51,46,42,41,39,37,86,77,66,29.96,29.86,10,5,15,0.00
2013-11-16,56,49,40,53,44,36,92,84,77,29.97,29.53,13,4,18,0.00
2013-11-17,60,55,45,58,53,41,98,93,84,29.54,29.06,27,7,33,0.00
2013-11-18,45,39,35,40,32,25,86,76,67,30.18,29.33,31,18,38,0.00
2013-11-19,36,34,32,27,26,23,79,72,66,30.40,30.19,11,3,14,0.00
2013-11-20,45,38,33,31,27,24,73,64,44,30.37,30.21,8,2,12,0.00
2013-11-21,44,41,37,42,37,29,94,86,65,30.23,30.18,5,1,9,0.00
2013-11-22,42,35,32,40,30,23,95,83,60,30.41,30.21,18,7,27,0.00
2013-11-23,34,24,21,27,18,13,92,77,60,30.60,30.30,20,13,25,0.00
2013-11-24,28,22,21,21,15,12,87,74,67,30.62,30.17,21,8,28,0.00
2013-11-25,40,34,28,34,29,21,95,81,64,30.17,29.91,27,17,33,0.00
2013-11-26,39,32,24,35,28,18,94,84,76,30.12,29.94,18,8,25,0.00
2013-11-27,27,25,24,23,18,14,90,73,61,30.23,30.07,14,5,24,0.00
2013-11-28,25,23,20,23,20,16,93,90,77,30.48,30.23,6,2,9,0.00
2013-11-29,32,26,20,27,22,18,94,87,76,30.65,30.48,9,2,10,0.00
2013-11-30,41,35,26,37,30,21,87,82,78,30.49,30.06,12,5,17,0.00
2013-12-1,37,36,34,33,31,29,89,85,78,30.14,30.03,2,0,5,0.00
2013-12-2,37,35,33,31,30,28,84,80,73,30.03,29.91,7,2,10,0.00
2013-12-3,33,31,30,30,26,22,96,82,65,29.98,29.90,7,3,14,0.00
2013-12-4,51,37,32,49,36,31,97,96,94,29.92,29.45,13,6,18,0.00
2013-12-5,51,33,22,48,28,18,92,82,76,30.14,29.44,33,20,39,0.00
2013-12-6,23,22,20,18,16,14,88,80,70,30.42,30.14,18,10,21,0.00
2013-12-7,22,20,18,17,13,8,84,77,65,30.61,30.43,17,11,22,0.00
2013-12-8,22,19,17,21,14,10,92,82,70,30.60,30.06,11,4,13,0.00
2013-12-9,30,23,14,26,20,11,94,87,74,30.07,29.85,31,14,38,0.00
2013-12-10,20,16,11,16,12,8,92,85,74,30.15,29.85,24,13,30,0.00
2013-12-11,18,16,14,14,11,8,87,81,74,30.41,30.15,17,12,24,0.00
2013-12-12,23,18,13,17,14,9,90,83,71,30.41,30.12,22,15,34,0.00
2013-12-13,23,18,12,17,11,4,84,75,68,30.44,30.13,15,5,21,0.00
2013-12-14,21,17,11,18,13,5,91,84,73,30.45,29.96,8,3,14,0.00
2013-12-15,26,22,19,24,18,15,94,87,77,30.04,29.79,18,10,26,0.00
2013-12-16,20,17,13,16,13,11,91,86,74,30.20,29.98,8,3,18,0.00
2013-12-17,31,25,18,26,22,15,93,87,74,29.97,29.84,17,7,23,0.00
2013-12-18,33,26,23,26,20,18,82,79,75,30.06,29.76,13,6,17,0.00
2013-12-19,36,30,25,31,26,21,86,82,77,30.13,29.75,15,4,18,0.00
2013-12-20,25,24,22,23,22,20,93,92,84,30.04,29.88,5,1,8,0.00
2013-12-21,29,27,25,27,25,23,95,91,87,30.01,29.86,5,1,9,0.00
2013-12-22,27,22,19,24,20,17,93,91,87,30.10,29.81,7,2,10,0.00
2013-12-23,21,19,16,17,16,11,93,86,76,30.39,30.10,7,1,9,0.00
2013-12-24,17,15,12,13,10,7,85,80,77,30.53,30.39,8,2,11,0.00
2013-12-25,26,21,16,23,18,12,93,87,80,30.42,30.07,19,7,23,0.00
2013-12-26,26,24,22,23,19,16,91,82,74,30.26,30.03,14,7,19,0.00
2013-12-27,39,29,22,34,24,17,87,82,77,30.28,29.92,20,6,28,0.00
2013-12-28,46,39,36,37,34,32,88,82,70,30.03,29.76,15,5,20,0.00
2013-12-29,42,26,15,36,22,9,94,85,75,30.13,29.72,17,7,20,0.00
2013-12-30,16,14,12,12,9,7,86,80,74,30.30,30.13,14,7,19,0.00
2013-12-31,14,12,11,11,8,5,89,82,74,30.39,30.09,18,11,28,0.00
2014-1-1,14,12,10,9,6,4,83,77,70,30.50,30.39,8,3,13,0.00
2014-1-2,15,11,10,11,5,3,85,77,67,30.44,30.34,9,3,14,0.00